Time;durP1;ratioP1;P1;durP2;ratioP2;P2;SDS_P1;SDS_P2;PMS_P1;PMS_P2;Temp;Humidity;BMP_temperature;BMP_pressure;BME280_temperature;BME280_humidity;BME280_pressure;Samples;Min_cycle;Max_cycle;Signal;HPM_P1;HPM_P2
2022/12/23 00:00:13;;;;;;;12.25;5.82;;;;;;;2.68;100.00;98726.59;5097399;28;20054;-57
2022/12/23 00:02:39;;;;;;;10.55;5.93;;;;;;;2.73;100.00;98736.78;5103043;28;20039;-53
2022/12/23 00:05:23;;;;;;;8.23;5.53;;;;;;;2.71;100.00;98728.28;5109519;28;20394;-55
2022/12/23 00:07:49;;;;;;;11.88;5.15;;;;;;;2.90;100.00;98755.28;5099696;28;20515;-53
2022/12/23 00:10:15;;;;;;;9.25;5.28;;;;;;;2.67;100.00;98722.34;5100663;28;20054;-53
2022/12/23 00:15:30;;;;;;;8.77;4.75;;;;;;;2.78;100.00;98743.53;5072740;28;20086;-51
2022/12/23 00:17:56;;;;;;;8.15;5.05;;;;;;;2.72;100.00;98735.13;5096831;28;20071;-55
2022/12/23 00:21:01;;;;;;;12.55;6.53;;;;;;;2.72;100.00;98735.13;5089247;28;20086;-55
2022/12/23 00:23:46;;;;;;;10.65;6.00;;;;;;;2.71;100.00;98735.97;5086246;28;20559;-56
2022/12/23 00:26:17;;;;;;;14.95;6.47;;;;;;;2.72;100.00;98737.69;5089089;28;20473;-55
2022/12/23 00:29:01;;;;;;;12.85;5.95;;;;;;;2.70;100.00;98736.84;5088434;28;20338;-56
2022/12/23 00:32:05;;;;;;;14.52;6.85;;;;;;;2.67;100.00;98727.47;5079653;28;20043;-54
2022/12/23 00:35:08;;;;;;;12.98;6.55;;;;;;;2.66;100.00;98709.56;5071402;28;20492;-54
2022/12/23 00:37:52;;;;;;;13.55;7.40;;;;;;;2.69;100.00;98701.78;5086182;28;20039;-53
2022/12/23 00:43:02;;;;;;;10.27;5.20;;;;;;;2.57;100.00;98672.06;5084113;28;20043;-54
2022/12/23 00:45:47;;;;;;;16.10;7.32;;;;;;;2.71;100.00;98687.22;5090378;28;20044;-55
2022/12/23 00:51:21;;;;;;;14.63;7.50;;;;;;;2.68;100.00;98679.56;5090490;28;20036;-55
2022/12/23 00:54:30;;;;;;;13.70;7.68;;;;;;;2.69;100.00;98689.81;5090647;28;20033;-53
2022/12/23 00:56:57;;;;;;;16.90;7.75;;;;;;;2.70;100.00;98695.81;5085657;28;20433;-50
2022/12/23 00:59:23;;;;;;;15.18;6.78;;;;;;;2.72;100.00;98710.28;5108877;27;20092;-51
2022/12/23 01:07:19;;;;;;;12.27;5.40;;;;;;;2.66;100.00;98694.16;5095357;28;20461;-55
2022/12/23 01:09:45;;;;;;;12.50;6.68;;;;;;;2.64;100.00;98701.88;5090440;28;20040;-51
2022/12/23 01:12:10;;;;;;;15.18;7.10;;;;;;;2.67;100.00;98709.50;5093988;28;20044;-53
2022/12/23 01:14:55;;;;;;;14.95;7.30;;;;;;;2.53;100.00;98690.97;5109639;28;20102;-54
2022/12/23 01:17:39;;;;;;;16.15;7.65;;;;;;;2.71;100.00;98713.75;5087280;28;20039;-52
2022/12/23 01:20:06;;;;;;;14.25;6.43;;;;;;;2.75;100.00;98730.75;5099704;28;20109;-52
2022/12/23 01:22:51;;;;;;;15.20;7.18;;;;;;;2.75;100.00;98733.34;5090925;28;20036;-52
2022/12/23 01:25:35;;;;;;;16.92;7.47;;;;;;;2.75;100.00;98714.53;5092258;28;20411;-56
2022/12/23 01:28:19;;;;;;;17.75;7.20;;;;;;;2.79;100.00;98704.16;5097643;28;20040;-56
2022/12/23 01:31:04;;;;;;;12.02;6.05;;;;;;;2.81;100.00;98706.72;5095326;28;20117;-54
2022/12/23 01:33:33;;;;;;;15.02;7.03;;;;;;;2.72;100.00;98705.16;5090634;28;20040;-56
2022/12/23 01:36:03;;;;;;;14.20;5.88;;;;;;;2.63;100.00;98707.03;5097893;28;20044;-54
2022/12/23 01:38:29;;;;;;;14.88;7.55;;;;;;;2.63;100.00;98704.47;5092980;28;20448;-54
2022/12/23 01:40:55;;;;;;;14.40;7.22;;;;;;;2.62;100.00;98706.19;5089417;28;20036;-56
2022/12/23 01:43:23;;;;;;;14.95;7.00;;;;;;;2.65;100.00;98701.03;5110556;28;20057;-52
2022/12/23 01:45:49;;;;;;;16.45;7.38;;;;;;;2.61;100.00;98696.81;5108813;27;20039;-53
2022/12/23 01:48:34;;;;;;;17.75;7.28;;;;;;;2.66;100.00;98701.88;5072243;28;20056;-54
2022/12/23 01:51:21;;;;;;;15.50;6.45;;;;;;;2.59;100.00;98682.31;5076454;28;20250;-53
2022/12/23 01:54:07;;;;;;;14.80;6.85;;;;;;;2.51;100.00;98677.34;5069923;28;20044;-53
2022/12/23 01:56:35;;;;;;;17.58;8.32;;;;;;;2.48;100.00;98675.66;5092707;28;20039;-55
2022/12/23 01:59:07;;;;;;;16.05;7.72;;;;;;;2.53;100.00;98668.72;5102981;28;20101;-56
2022/12/23 02:04:20;;;;;;;15.98;7.88;;;;;;;2.55;100.00;98681.53;5096423;28;20039;-56
2022/12/23 02:09:35;;;;;;;19.58;9.48;;;;;;;2.32;100.00;98647.75;5074903;28;20424;-54
2022/12/23 02:12:38;;;;;;;18.33;8.18;;;;;;;2.50;100.00;98670.50;5089006;28;20174;-55
2022/12/23 02:18:32;;;;;;;17.45;8.07;;;;;;;2.43;100.00;98672.34;5096550;28;20043;-53
2022/12/23 02:21:11;;;;;;;17.45;7.88;;;;;;;2.44;100.00;98678.31;5104613;28;20837;-54
2022/12/23 02:23:43;;;;;;;20.05;8.20;;;;;;;2.45;100.00;98667.19;5109038;28;20533;-56
2022/12/23 02:26:46;;;;;;;21.90;9.52;;;;;;;2.47;100.00;98673.97;5090503;28;20515;-54
2022/12/23 02:29:49;;;;;;;21.15;8.95;;;;;;;2.51;100.00;98674.78;5094477;28;20119;-56
2022/12/23 02:32:40;;;;;;;25.85;9.57;;;;;;;2.43;100.00;98674.06;5089489;28;20127;-53
2022/12/23 02:35:12;;;;;;;20.52;8.10;;;;;;;2.36;100.00;98673.31;5087730;28;20036;-55
2022/12/23 02:38:00;;;;;;;26.80;11.80;;;;;;;2.40;100.00;98681.81;5104076;28;20078;-56
2022/12/23 02:40:34;;;;;;;23.20;9.90;;;;;;;2.41;100.00;98678.34;5069867;28;20036;-52
2022/12/23 02:43:09;;;;;;;25.20;11.30;;;;;;;2.38;100.00;98655.34;5098657;28;20047;-53
2022/12/23 02:45:41;;;;;;;18.73;6.88;;;;;;;2.34;100.00;98676.78;5088849;28;20050;-55
2022/12/23 02:48:15;;;;;;;22.75;10.88;;;;;;;2.16;100.00;98646.31;5107525;28;20043;-53
2022/12/23 02:50:42;;;;;;;19.63;7.82;;;;;;;2.13;100.00;98648.09;5068037;28;20052;-54
2022/12/23 02:53:49;;;;;;;25.63;12.80;;;;;;;2.33;100.00;98682.78;5088202;28;20512;-53
2022/12/23 02:56:17;;;;;;;23.38;10.75;;;;;;;2.39;100.00;98685.25;5075359;28;20039;-51
2022/12/23 02:58:50;;;;;;;25.63;11.93;;;;;;;2.07;100.00;98622.56;5101843;28;20063;-52
2022/12/23 03:01:34;;;;;;;27.38;11.02;;;;;;;2.46;100.00;98674.03;5089673;28;20044;-55
2022/12/23 03:04:00;;;;;;;22.80;8.82;;;;;;;2.23;100.00;98645.34;5088540;28;20032;-54
2022/12/23 03:06:47;;;;;;;24.15;9.95;;;;;;;2.41;100.00;98665.53;5108365;28;20070;-50
2022/12/23 03:09:21;;;;;;;18.30;8.10;;;;;;;2.38;100.00;98681.84;5099792;28;20043;-53
2022/12/23 03:12:24;;;;;;;18.05;7.65;;;;;;;2.36;100.00;98680.16;5092860;28;20138;-51
2022/12/23 03:15:36;;;;;;;21.38;9.50;;;;;;;2.35;100.00;98681.06;5109082;28;20419;-53
2022/12/23 03:18:48;;;;;;;22.20;10.15;;;;;;;2.40;100.00;98685.22;5095228;28;20032;-54
2022/12/23 03:21:23;;;;;;;23.35;9.70;;;;;;;2.45;100.00;98680.00;5098448;28;20400;-55
2022/12/23 03:24:24;;;;;;;22.90;10.00;;;;;;;2.44;100.00;98683.44;5087830;28;20518;-56
2022/12/23 03:26:56;;;;;;;28.95;10.55;;;;;;;2.41;100.00;98684.34;5098438;28;20051;-55
2022/12/23 03:29:32;;;;;;;23.08;10.07;;;;;;;2.41;100.00;98688.63;5107256;28;20043;-56
2022/12/23 03:32:17;;;;;;;23.60;10.30;;;;;;;2.40;100.00;98684.38;5105709;28;20514;-55
2022/12/23 03:35:03;;;;;;;15.65;6.50;;;;;;;2.41;100.00;98693.75;5090786;28;20514;-55
2022/12/23 03:38:10;;;;;;;20.70;8.55;;;;;;;2.18;100.00;98663.38;5082864;28;20495;-55
2022/12/23 03:40:45;;;;;;;26.00;11.37;;;;;;;2.32;100.00;98674.25;5092453;28;20121;-55
2022/12/23 03:43:32;;;;;;;23.95;10.27;;;;;;;2.41;100.00;98680.91;5091184;28;20840;-55
2022/12/23 03:46:11;;;;;;;21.02;9.15;;;;;;;2.38;100.00;98674.13;5109784;28;20035;-56
2022/12/23 03:48:57;;;;;;;;;;;;;;;2.38;100.00;98686.13;5112125;28;20571;-54
2022/12/23 03:51:47;;;;;;;20.88;8.60;;;;;;;2.28;100.00;98688.00;5090906;28;19926;-55
2022/12/23 03:54:17;;;;;;;;;;;;;;;2.34;100.00;98687.91;5111172;28;20461;-53
2022/12/23 03:57:04;;;;;;;18.00;9.13;;;;;;;1.88;100.00;98607.53;5105213;28;19969;-56
2022/12/23 03:59:32;;;;;;;32.47;12.25;;;;;;;2.26;100.00;98671.78;5106295;28;20139;-57
2022/12/23 04:02:07;;;;;;;24.52;9.30;;;;;;;2.33;100.00;98675.09;5089899;28;20043;-53
2022/12/23 04:04:52;;;;;;;25.95;10.40;;;;;;;2.34;100.00;98675.06;5111492;28;20039;-55
2022/12/23 04:07:37;;;;;;;16.55;6.32;;;;;;;2.39;100.00;98678.41;5112620;28;20100;-55
2022/12/23 04:10:04;;;;;;;20.08;8.85;;;;;;;2.18;100.00;98642.88;5104852;28;20151;-54
2022/12/23 04:12:30;;;;;;;29.05;11.27;;;;;;;2.43;100.00;98671.50;5100591;28;20046;-56
2022/12/23 04:14:57;;;;;;;26.30;9.57;;;;;;;2.44;100.00;98670.63;5094300;28;20089;-55
2022/12/23 04:17:41;;;;;;;22.20;9.98;;;;;;;2.51;100.00;98675.59;5112534;28;20075;-55
2022/12/23 04:20:25;;;;;;;22.60;11.20;;;;;;;2.48;100.00;98672.25;5086777;28;20504;-53
2022/12/23 04:22:57;;;;;;;23.83;9.40;;;;;;;2.48;100.00;98667.13;5077386;28;20039;-57
2022/12/23 04:25:23;;;;;;;22.83;10.95;;;;;;;2.50;100.00;98670.50;5102815;28;20027;-54
2022/12/23 04:27:49;;;;;;;24.80;10.40;;;;;;;2.49;100.00;98671.38;5097085;28;20408;-53
2022/12/23 04:30:34;;;;;;;25.92;10.07;;;;;;;2.50;100.00;98665.38;5054885;28;20043;-54
2022/12/23 04:33:18;;;;;;;22.85;10.23;;;;;;;2.51;100.00;98667.09;5089348;28;20486;-56
2022/12/23 04:36:02;;;;;;;18.35;7.63;;;;;;;2.55;100.00;98667.00;5091098;28;20508;-55
2022/12/23 04:38:28;;;;;;;21.27;9.45;;;;;;;2.49;100.00;98661.13;5090548;28;20128;-55
2022/12/23 04:41:13;;;;;;;19.83;8.68;;;;;;;2.54;100.00;98672.16;5072899;28;20486;-55
2022/12/23 04:43:39;;;;;;;24.20;10.77;;;;;;;2.55;100.00;98663.59;5104789;28;20130;-53
2022/12/23 04:46:23;;;;;;;22.08;10.35;;;;;;;2.55;100.00;98659.28;5075109;28;20165;-52
2022/12/23 04:48:49;;;;;;;22.92;9.82;;;;;;;2.48;100.00;98647.44;5110279;28;20113;-55
2022/12/23 04:51:33;;;;;;;21.52;10.15;;;;;;;2.63;100.00;98663.41;5082067;28;20054;-58
2022/12/23 04:54:17;;;;;;;21.48;9.18;;;;;;;2.64;100.00;98671.09;5097721;28;20514;-51
2022/12/23 04:56:43;;;;;;;23.02;10.05;;;;;;;2.71;100.00;98664.13;5077790;28;20050;-52
2022/12/23 04:59:09;;;;;;;18.48;8.85;;;;;;;2.78;100.00;98663.13;5082904;28;20067;-53
2022/12/23 05:01:35;;;;;;;22.50;9.63;;;;;;;2.83;100.00;98663.88;5086333;28;20085;-54
2022/12/23 05:04:01;;;;;;;22.75;10.45;;;;;;;2.81;100.00;98660.50;5089378;28;20032;-55
2022/12/23 05:06:45;;;;;;;14.50;6.55;;;;;;;2.76;100.00;98650.34;5092959;28;20401;-54
2022/12/23 05:09:29;;;;;;;23.10;10.10;;;;;;;2.74;100.00;98652.09;5090893;28;20097;-53
2022/12/23 05:12:32;;;;;;;23.98;10.23;;;;;;;2.70;100.00;98649.59;5091039;28;20127;-50
2022/12/23 05:14:58;;;;;;;26.55;9.80;;;;;;;2.72;100.00;98650.44;5071929;28;20392;-52
2022/12/23 05:17:24;;;;;;;26.73;10.48;;;;;;;2.73;100.00;98654.66;5088541;28;20055;-51
2022/12/23 05:20:09;;;;;;;26.00;11.07;;;;;;;2.76;100.00;98645.22;5076459;28;20059;-56
2022/12/23 05:22:53;;;;;;;27.67;11.63;;;;;;;2.69;100.00;98640.22;5108730;28;20051;-50
2022/12/23 05:25:19;;;;;;;25.88;10.95;;;;;;;2.72;100.00;98642.75;5099923;28;20028;-53
2022/12/23 05:28:04;;;;;;;26.52;10.60;;;;;;;2.32;100.00;98587.06;5088954;28;20484;-50
2022/12/23 05:30:30;;;;;;;32.15;12.35;;;;;;;2.62;100.00;98633.53;5054908;28;20507;-53
2022/12/23 05:32:57;;;;;;;29.75;12.73;;;;;;;2.67;100.00;98645.38;5106064;28;20082;-50
2022/12/23 05:35:42;;;;;;;27.58;12.60;;;;;;;2.69;100.00;98647.91;5088509;28;20515;-53
2022/12/23 05:38:08;;;;;;;27.95;13.10;;;;;;;2.66;100.00;98650.56;5095101;28;20043;-54
2022/12/23 05:40:34;;;;;;;29.73;14.10;;;;;;;2.44;100.00;98604.78;5086336;28;20456;-53
2022/12/23 05:43:18;;;;;;;28.45;13.52;;;;;;;2.69;100.00;98642.78;5100792;28;20080;-52
2022/12/23 05:46:04;;;;;;;33.25;14.40;;;;;;;2.69;100.00;98642.78;5092134;28;20062;-54
2022/12/23 05:48:30;;;;;;;28.35;14.23;;;;;;;2.69;100.00;98629.94;5100399;27;20040;-54
2022/12/23 05:51:33;;;;;;;29.77;14.70;;;;;;;2.72;100.00;98638.41;5088433;28;20097;-53
2022/12/23 05:54:17;;;;;;;27.02;14.48;;;;;;;2.72;100.00;98638.41;5094141;28;20515;-56
2022/12/23 05:57:02;;;;;;;26.08;12.40;;;;;;;2.74;100.00;98630.72;5105064;28;20542;-54
2022/12/23 05:59:27;;;;;;;28.27;13.50;;;;;;;2.70;100.00;98626.50;5088474;28;20056;-47
2022/12/23 06:02:12;;;;;;;26.20;13.10;;;;;;;2.72;100.00;98637.59;5088873;28;20039;-55
2022/12/23 06:04:38;;;;;;;21.50;8.95;;;;;;;2.73;100.00;98632.41;5095394;28;20151;-52
2022/12/23 06:07:04;;;;;;;26.45;11.15;;;;;;;2.72;100.00;98627.34;5088557;28;20028;-50
2022/12/23 06:09:30;;;;;;;22.52;9.80;;;;;;;2.75;100.00;98625.56;5089906;28;20067;-55
2022/12/23 06:11:56;;;;;;;23.83;10.13;;;;;;;2.76;100.00;98631.53;5088107;28;20039;-53
2022/12/23 06:14:22;;;;;;;22.90;10.48;;;;;;;2.73;100.00;98636.72;5090061;28;20035;-52
2022/12/23 06:17:07;;;;;;;20.80;9.05;;;;;;;2.52;100.00;98602.91;5087637;28;20492;-51
2022/12/23 06:19:33;;;;;;;24.02;9.80;;;;;;;2.71;100.00;98631.63;5087451;28;20048;-55
2022/12/23 06:22:36;;;;;;;18.88;7.97;;;;;;;2.73;100.00;98626.44;5087718;28;20040;-51
2022/12/23 06:25:02;;;;;;;19.27;9.23;;;;;;;2.60;100.00;98618.16;5087776;28;20081;-51
2022/12/23 06:27:29;;;;;;;12.77;6.25;;;;;;;2.70;100.00;98631.66;5087807;28;20043;-52
2022/12/23 06:30:14;;;;;;;21.40;9.23;;;;;;;2.70;100.00;98629.09;5090790;28;20127;-48
2022/12/23 06:32:58;;;;;;;17.95;7.95;;;;;;;2.74;100.00;98628.13;5109043;28;20042;-54
2022/12/23 06:35:24;;;;;;;17.92;8.60;;;;;;;2.75;100.00;98633.25;5108456;28;20044;-47
2022/12/23 06:38:12;;;;;;;18.95;8.45;;;;;;;2.76;100.00;98632.38;5098151;28;20044;-51
2022/12/23 06:40:56;;;;;;;13.75;5.72;;;;;;;2.82;100.00;98628.84;5088684;28;20067;-45
2022/12/23 06:43:41;;;;;;;15.90;7.18;;;;;;;2.84;100.00;98638.19;5109833;28;20035;-46
2022/12/23 06:46:06;;;;;;;18.60;9.38;;;;;;;2.82;100.00;98626.28;5092015;28;20472;-49
2022/12/23 06:48:32;;;;;;;18.00;9.43;;;;;;;2.81;100.00;98629.72;5092069;28;20040;-48
2022/12/23 06:50:58;;;;;;;14.55;7.53;;;;;;;2.64;100.00;98606.09;5094169;28;20050;-47
2022/12/23 06:53:24;;;;;;;12.38;5.90;;;;;;;2.76;100.00;98636.66;5076707;28;20040;-47
2022/12/23 06:55:58;;;;;;;20.48;8.27;;;;;;;2.75;100.00;98638.38;5070873;28;20085;-48
2022/12/23 06:58:24;;;;;;;19.40;8.20;;;;;;;2.59;100.00;98606.19;5093724;28;20043;-51
2022/12/23 07:01:27;;;;;;;18.63;8.00;;;;;;;2.77;100.00;98630.66;5096414;28;20063;-48
2022/12/23 07:03:53;;;;;;;19.38;9.20;;;;;;;2.83;100.00;98621.09;5086422;28;20036;-53
2022/12/23 07:06:19;;;;;;;18.15;8.93;;;;;;;2.95;100.00;98623.41;5097339;28;20043;-51
2022/12/23 07:09:03;;;;;;;16.58;7.75;;;;;;;3.08;100.00;98621.44;5100462;28;20536;-48
2022/12/23 07:11:29;;;;;;;18.73;7.90;;;;;;;2.91;100.00;98601.25;5094901;28;20093;-50
2022/12/23 07:14:14;;;;;;;20.63;9.70;;;;;;;2.98;100.00;98612.25;5075250;28;20392;-51
2022/12/23 07:16:58;;;;;;;21.80;9.60;;;;;;;2.77;100.00;98580.19;5088843;28;20052;-43
2022/12/23 07:19:24;;;;;;;19.42;9.60;;;;;;;2.92;100.00;98610.66;5100099;28;20043;-55
2022/12/23 07:22:28;;;;;;;20.73;9.63;;;;;;;2.96;100.00;98609.72;5107517;28;20040;-52
2022/12/23 07:25:12;;;;;;;24.45;11.35;;;;;;;2.90;100.00;98609.00;5109741;27;20044;-51
2022/12/23 07:27:39;;;;;;;21.25;9.93;;;;;;;2.96;100.00;98612.28;5101725;28;20039;-49
2022/12/23 07:30:06;;;;;;;22.10;9.43;;;;;;;2.95;100.00;98617.44;5097466;28;20069;-53
2022/12/23 07:32:34;;;;;;;23.87;11.13;;;;;;;2.91;100.00;98613.25;5072137;28;20051;-50
2022/12/23 07:35:37;;;;;;;27.23;9.90;;;;;;;2.97;100.00;98602.84;5092381;28;20050;-49
2022/12/23 07:38:02;;;;;;;23.48;10.55;;;;;;;2.87;100.00;98607.34;5086289;28;20050;-51
2022/12/23 07:40:29;;;;;;;30.17;11.00;;;;;;;2.87;100.00;98597.06;5092438;28;20446;-50
2022/12/23 07:43:13;;;;;;;22.77;10.45;;;;;;;2.90;100.00;98596.16;5091438;28;20086;-49
2022/12/23 07:45:39;;;;;;;24.02;10.93;;;;;;;2.73;100.00;98583.66;5091232;28;20135;-52
2022/12/23 07:48:05;;;;;;;28.05;11.68;;;;;;;2.85;100.00;98593.69;5091119;28;20089;-52
2022/12/23 07:50:50;;;;;;;24.52;11.15;;;;;;;2.99;100.00;98593.38;5092255;28;20048;-50
2022/12/23 07:53:34;;;;;;;23.90;9.93;;;;;;;3.08;100.00;98594.94;5092512;28;20031;-50
2022/12/23 07:56:03;;;;;;;24.33;10.32;;;;;;;3.01;100.00;98583.94;5091001;28;20040;-47
2022/12/23 07:58:29;;;;;;;21.92;10.23;;;;;;;2.99;100.00;98589.09;5092602;28;20079;-49
2022/12/23 08:01:03;;;;;;;26.83;11.38;;;;;;;3.07;100.00;98582.97;5085007;28;20090;-51
2022/12/23 08:03:48;;;;;;;21.65;8.90;;;;;;;3.06;100.00;98591.53;5072047;28;20118;-51
2022/12/23 08:06:35;;;;;;;23.75;10.50;;;;;;;2.99;100.00;98595.94;5072069;28;20032;-49
2022/12/23 08:09:01;;;;;;;23.08;10.32;;;;;;;2.91;100.00;98597.84;5070801;28;20126;-50
2022/12/23 08:12:03;;;;;;;23.92;11.23;;;;;;;2.91;100.00;98593.56;5089781;28;20044;-49
2022/12/23 08:14:29;;;;;;;26.50;10.30;;;;;;;3.03;100.00;98579.63;5091841;28;20055;-50
2022/12/23 08:17:14;;;;;;;19.55;9.00;;;;;;;3.13;100.00;98596.53;5090477;28;20039;-51
2022/12/23 08:19:40;;;;;;;27.55;12.02;;;;;;;3.07;100.00;98595.81;5091589;28;20043;-52
2022/12/23 08:22:06;;;;;;;30.63;10.50;;;;;;;3.05;100.00;98597.53;5101519;28;20044;-50
2022/12/23 08:24:32;;;;;;;24.10;10.38;;;;;;;3.12;100.00;98581.13;5086805;28;20558;-51
2022/12/23 08:27:16;;;;;;;23.20;9.90;;;;;;;2.95;100.00;98548.13;5071284;28;20136;-51
2022/12/23 08:29:43;;;;;;;24.05;10.18;;;;;;;3.09;100.00;98582.03;5069688;28;20093;-51
2022/12/23 08:32:29;;;;;;;21.40;8.85;;;;;;;3.08;100.00;98584.66;5071668;28;20036;-50
2022/12/23 08:35:13;;;;;;;20.92;9.70;;;;;;;3.08;100.00;98575.25;5069909;28;20119;-51
2022/12/23 08:37:57;;;;;;;24.23;10.25;;;;;;;3.07;100.00;98577.81;5080013;28;20036;-51
2022/12/23 08:40:42;;;;;;;26.02;10.68;;;;;;;3.12;100.00;98568.28;5073143;28;20127;-53
2022/12/23 08:43:26;;;;;;;17.27;7.65;;;;;;;3.08;100.00;98569.25;5091217;28;20541;-51
2022/12/23 08:45:52;;;;;;;22.63;9.43;;;;;;;2.87;100.00;98537.19;5091372;28;20098;-47
2022/12/23 08:48:18;;;;;;;26.02;11.32;;;;;;;3.10;100.00;98565.75;5090282;28;20411;-56
2022/12/23 08:51:08;;;;;;;23.33;9.55;;;;;;;3.06;100.00;98559.00;5104775;28;20043;-54
2022/12/23 08:53:35;;;;;;;24.67;10.57;;;;;;;3.08;100.00;98564.13;5090834;28;20085;-49
2022/12/23 08:56:03;;;;;;;24.83;10.40;;;;;;;3.14;100.00;98564.00;5091111;28;20044;-54
2022/12/23 08:59:08;;;;;;;24.08;9.27;;;;;;;3.15;100.00;98566.50;5090940;28;20062;-47
2022/12/23 09:01:34;;;;;;;27.38;10.50;;;;;;;3.24;100.00;98557.75;5089060;28;20222;-51
2022/12/23 09:04:22;;;;;;;20.05;9.82;;;;;;;3.42;100.00;98565.88;5089920;28;20035;-54
2022/12/23 09:06:48;;;;;;;22.85;10.23;;;;;;;3.29;100.00;98555.94;5091005;28;20044;-50
2022/12/23 09:09:33;;;;;;;24.90;11.00;;;;;;;3.23;100.00;98556.91;5090939;28;20047;-50
2022/12/23 09:11:59;;;;;;;21.55;10.38;;;;;;;3.08;100.00;98516.19;5090039;28;20048;-51
2022/12/23 09:14:25;;;;;;;23.65;10.48;;;;;;;3.35;100.00;98541.19;5089421;28;20419;-51
2022/12/23 09:16:51;;;;;;;27.05;10.70;;;;;;;3.28;100.00;98537.09;5089268;28;20040;-50
2022/12/23 09:19:35;;;;;;;21.48;10.50;;;;;;;3.24;100.00;98534.66;5090655;28;20036;-53
2022/12/23 09:22:01;;;;;;;23.73;9.52;;;;;;;3.19;100.00;98532.16;5090403;28;20097;-50
2022/12/23 09:25:07;;;;;;;21.40;9.27;;;;;;;3.10;100.00;98526.41;5088767;28;20040;-52
2022/12/23 09:27:51;;;;;;;22.55;9.25;;;;;;;3.07;100.00;98518.78;5090546;28;20044;-49
2022/12/23 09:30:17;;;;;;;28.30;10.13;;;;;;;2.93;100.00;98507.09;5087647;28;20435;-51
2022/12/23 09:33:01;;;;;;;22.00;10.50;;;;;;;3.07;100.00;98511.06;5088561;28;20042;-52
2022/12/23 09:35:46;;;;;;;20.80;9.18;;;;;;;3.07;100.00;98511.06;5088925;28;20047;-49
2022/12/23 09:38:12;;;;;;;30.83;11.35;;;;;;;2.90;100.00;98483.22;5085636;28;20043;-51
2022/12/23 09:40:39;;;;;;;24.23;10.23;;;;;;;3.13;100.00;98505.81;5085465;28;20040;-49
2022/12/23 09:43:20;;;;;;;23.15;10.27;;;;;;;3.29;100.00;98502.00;5103125;28;20113;-51
2022/12/23 09:45:52;;;;;;;26.88;11.13;;;;;;;3.33;100.00;98503.59;5090005;28;20096;-54
2022/12/23 09:48:42;;;;;;;18.98;9.73;;;;;;;3.49;100.00;98501.50;5088787;28;20062;-52
2022/12/23 09:51:26;;;;;;;22.55;10.85;;;;;;;3.62;100.00;98496.00;5089747;28;20048;-53
2022/12/23 09:54:14;;;;;;;21.65;9.25;;;;;;;3.53;100.00;98500.53;5089861;28;20514;-56
2022/12/23 09:57:18;;;;;;;19.10;10.27;;;;;;;3.51;100.00;98492.03;5089920;28;20503;-53
2022/12/23 10:00:03;;;;;;;19.75;9.38;;;;;;;3.52;100.00;98491.97;5066299;28;20526;-54
2022/12/23 10:03:04;;;;;;;21.45;10.38;;;;;;;3.47;100.00;98487.84;5086583;28;20044;-53
2022/12/23 10:05:55;;;;;;;19.67;9.43;;;;;;;3.47;100.00;98480.13;5071773;28;20072;-52
2022/12/23 10:08:43;;;;;;;19.95;8.90;;;;;;;3.40;100.00;98485.41;5088589;28;20047;-52
2022/12/23 10:11:42;;;;;;;20.47;9.13;;;;;;;3.35;100.00;98478.69;5088153;28;20040;-50
2022/12/23 10:14:17;;;;;;;19.73;8.67;;;;;;;3.35;100.00;98469.28;5069361;28;20128;-52
2022/12/23 10:17:28;;;;;;;18.00;9.00;;;;;;;3.35;100.00;98469.28;5069177;28;20283;-51
2022/12/23 10:19:59;;;;;;;21.77;9.95;;;;;;;3.18;100.00;98442.34;5067643;28;20043;-52
2022/12/23 10:22:45;;;;;;;19.88;8.85;;;;;;;3.33;100.00;98459.94;5077790;28;20052;-51
2022/12/23 10:25:24;;;;;;;17.83;8.88;;;;;;;3.34;100.00;98452.19;5088327;28;20121;-52
2022/12/23 10:28:10;;;;;;;22.70;9.55;;;;;;;3.32;100.00;98440.25;5088428;28;20177;-51
2022/12/23 10:30:39;;;;;;;23.40;9.07;;;;;;;3.38;100.00;98434.97;5089495;28;20046;-52
2022/12/23 10:33:14;;;;;;;19.98;8.93;;;;;;;3.40;100.00;98428.09;5087875;28;20113;-53
2022/12/23 10:35:46;;;;;;;23.13;8.70;;;;;;;3.46;100.00;98430.47;5104822;28;20427;-52
2022/12/23 10:38:24;;;;;;;19.40;9.57;;;;;;;3.41;100.00;98422.03;5089117;28;20035;-51
2022/12/23 10:41:01;;;;;;;23.45;9.10;;;;;;;3.44;100.00;98431.41;5070742;28;20043;-51
2022/12/23 10:43:39;;;;;;;21.17;9.90;;;;;;;3.47;100.00;98421.03;5087665;28;20038;-55
2022/12/23 10:46:38;;;;;;;22.77;10.25;;;;;;;3.42;100.00;98424.56;5089228;28;20126;-51
2022/12/23 10:49:19;;;;;;;20.30;9.27;;;;;;;3.48;100.00;98418.44;5087690;28;20571;-50
2022/12/23 10:51:46;;;;;;;20.90;9.90;;;;;;;3.44;100.00;98424.56;5089255;28;20368;-49
2022/12/23 10:54:18;;;;;;;18.40;9.05;;;;;;;3.44;100.00;98416.84;5087669;28;20544;-56
2022/12/23 10:56:44;;;;;;;17.67;8.77;;;;;;;3.50;100.00;98415.84;5089426;28;20439;-54
2022/12/23 10:59:14;;;;;;;19.33;9.38;;;;;;;3.53;100.00;98415.75;5089295;28;20046;-51
2022/12/23 11:01:42;;;;;;;19.35;8.93;;;;;;;3.49;100.00;98420.13;5087643;28;20165;-51
2022/12/23 11:04:17;;;;;;;19.08;9.00;;;;;;;3.49;100.00;98414.16;5070810;28;20036;-51
2022/12/23 11:06:45;;;;;;;15.93;7.93;;;;;;;3.44;100.00;98408.28;5089081;28;20051;-51
2022/12/23 11:09:57;;;;;;;15.60;8.13;;;;;;;3.40;100.00;98418.63;5087975;28;20512;-54
2022/12/23 11:12:35;;;;;;;19.63;8.80;;;;;;;3.44;100.00;98424.56;5080786;28;20059;-51
2022/12/23 11:15:01;;;;;;;16.10;8.23;;;;;;;3.50;100.00;98421.81;5068630;28;20119;-54
2022/12/23 11:17:32;;;;;;;20.48;8.20;;;;;;;3.53;100.00;98420.88;5051126;28;20473;-50
2022/12/23 11:20:19;;;;;;;19.90;9.88;;;;;;;3.54;100.00;98423.41;5068511;28;20040;-50
2022/12/23 11:22:50;;;;;;;20.27;9.43;;;;;;;3.47;100.00;98428.75;5069142;28;20055;-54
2022/12/23 11:25:37;;;;;;;21.65;9.35;;;;;;;3.46;100.00;98427.91;5087479;28;20036;-53
2022/12/23 11:28:15;;;;;;;19.50;9.27;;;;;;;3.43;100.00;98430.56;5070541;28;20040;-47
2022/12/23 11:31:10;;;;;;;18.90;10.88;;;;;;;3.41;100.00;98404.06;5087648;28;20133;-51
2022/12/23 11:34:15;;;;;;;17.92;8.75;;;;;;;3.66;100.00;98424.84;5084235;28;20675;-56
2022/12/23 11:36:41;;;;;;;17.95;9.82;;;;;;;3.65;100.00;98425.72;5090667;28;20500;-49
2022/12/23 11:39:11;;;;;;;19.25;10.15;;;;;;;3.55;100.00;98426.84;5108503;28;20219;-55
2022/12/23 11:41:39;;;;;;;23.17;9.95;;;;;;;3.50;100.00;98437.25;5109140;28;20047;-51
2022/12/23 11:44:28;;;;;;;24.67;10.53;;;;;;;3.42;100.00;98422.00;5104542;28;20052;-53
2022/12/23 11:47:24;;;;;;;20.38;9.60;;;;;;;3.40;100.00;98420.38;5079409;28;20451;-53
2022/12/23 11:49:55;;;;;;;18.25;8.90;;;;;;;3.50;100.00;98424.41;5074364;28;20048;-55
2022/12/23 11:52:23;;;;;;;22.92;9.98;;;;;;;3.52;100.00;98419.19;5098231;28;20424;-56
2022/12/23 11:54:52;;;;;;;21.13;9.73;;;;;;;3.50;100.00;98411.56;5082573;28;20527;-56
2022/12/23 11:57:42;;;;;;;19.13;9.07;;;;;;;3.52;100.00;98408.91;5093849;28;20519;-56
2022/12/23 12:00:41;;;;;;;16.05;7.80;;;;;;;3.45;100.00;98397.13;5086192;28;20059;-55
2022/12/23 12:03:16;;;;;;;21.02;8.55;;;;;;;3.38;100.00;98393.88;5096346;28;20044;-53
2022/12/23 12:06:04;;;;;;;19.70;8.88;;;;;;;3.36;100.00;98408.47;5080701;28;20086;-52
2022/12/23 12:08:35;;;;;;;16.30;8.33;;;;;;;3.29;100.00;98397.53;5083519;28;20097;-54
2022/12/23 12:11:23;;;;;;;20.08;9.35;;;;;;;3.09;100.00;98365.56;5051192;28;20146;-51
2022/12/23 12:14:09;;;;;;;25.10;11.38;;;;;;;3.22;100.00;98397.72;5083177;28;20470;-53
2022/12/23 12:16:56;;;;;;;25.10;11.35;;;;;;;3.16;100.00;98401.28;5067837;28;20039;-56
2022/12/23 12:19:43;;;;;;;19.73;9.48;;;;;;;3.18;100.00;98409.81;5090929;28;20047;-48
2022/12/23 12:22:14;;;;;;;21.33;11.05;;;;;;;3.17;100.00;98397.00;5079348;28;20050;-55
2022/12/23 12:24:46;;;;;;;23.35;11.60;;;;;;;3.14;100.00;98399.66;5096500;28;20052;-49
2022/12/23 12:27:12;;;;;;;17.65;7.95;;;;;;;3.12;100.00;98411.69;5076251;28;20109;-55
2022/12/23 12:29:48;;;;;;;22.85;10.50;;;;;;;3.08;100.00;98400.66;5084086;28;20044;-51
2022/12/23 12:32:30;;;;;;;16.35;9.18;;;;;;;2.83;100.00;98367.03;5106073;27;20028;-55
2022/12/23 12:35:02;;;;;;;18.85;10.00;;;;;;;3.11;100.00;98408.25;5080016;28;20463;-53